sensor_id;sensor_type;location;lat;lon;timestamp;P1;durP1;ratioP1;P2;durP2;ratioP2
20486;SDS011;10402;49.012;8.370;2023-12-22T00:02:06;481.67;;;458.57;;
20486;SDS011;10402;49.012;8.370;2023-12-22T00:04:32;465.47;;;443.27;;
20486;SDS011;10402;49.012;8.370;2023-12-22T00:06:57;454.33;;;432.67;;
20486;SDS011;10402;49.012;8.370;2023-12-22T00:09:23;470.10;;;448.40;;
20486;SDS011;10402;49.012;8.370;2023-12-22T00:11:48;471.53;;;450.57;;
20486;SDS011;10402;49.012;8.370;2023-12-22T00:14:14;454.60;;;434.27;;
20486;SDS011;10402;49.012;8.370;2023-12-22T00:16:39;449.13;;;429.10;;
20486;SDS011;10402;49.012;8.370;2023-12-22T00:19:05;428.13;;;409.57;;
20486;SDS011;10402;49.012;8.370;2023-12-22T00:21:31;435.87;;;416.53;;
20486;SDS011;10402;49.012;8.370;2023-12-22T00:23:56;431.27;;;411.93;;
20486;SDS011;10402;49.012;8.370;2023-12-22T00:26:22;417.40;;;398.57;;
20486;SDS011;10402;49.012;8.370;2023-12-22T00:28:48;435.40;;;416.00;;
20486;SDS011;10402;49.012;8.370;2023-12-22T00:31:13;438.17;;;418.63;;
20486;SDS011;10402;49.012;8.370;2023-12-22T00:33:39;448.73;;;428.47;;
20486;SDS011;10402;49.012;8.370;2023-12-22T00:36:05;463.80;;;442.60;;
20486;SDS011;10402;49.012;8.370;2023-12-22T00:38:31;474.83;;;453.33;;
20486;SDS011;10402;49.012;8.370;2023-12-22T00:40:57;495.83;;;473.13;;
20486;SDS011;10402;49.012;8.370;2023-12-22T00:43:22;479.60;;;457.77;;
20486;SDS011;10402;49.012;8.370;2023-12-22T00:45:48;490.13;;;467.63;;
20486;SDS011;10402;49.012;8.370;2023-12-22T00:48:13;499.30;;;475.90;;
20486;SDS011;10402;49.012;8.370;2023-12-22T00:50:39;498.03;;;474.47;;
20486;SDS011;10402;49.012;8.370;2023-12-22T00:53:04;511.90;;;487.53;;
20486;SDS011;10402;49.012;8.370;2023-12-22T00:55:30;510.33;;;486.03;;
20486;SDS011;10402;49.012;8.370;2023-12-22T00:57:55;510.70;;;486.07;;
20486;SDS011;10402;49.012;8.370;2023-12-22T01:00:21;497.87;;;473.90;;
20486;SDS011;10402;49.012;8.370;2023-12-22T01:02:46;531.83;;;505.90;;
20486;SDS011;10402;49.012;8.370;2023-12-22T01:05:12;526.70;;;500.53;;
20486;SDS011;10402;49.012;8.370;2023-12-22T01:07:38;545.20;;;517.87;;
20486;SDS011;10402;49.012;8.370;2023-12-22T01:10:03;533.13;;;506.20;;
20486;SDS011;10402;49.012;8.370;2023-12-22T01:12:30;562.47;;;533.77;;
20486;SDS011;10402;49.012;8.370;2023-12-22T01:14:56;571.40;;;541.33;;
20486;SDS011;10402;49.012;8.370;2023-12-22T01:17:22;580.27;;;549.43;;
20486;SDS011;10402;49.012;8.370;2023-12-22T01:19:48;570.20;;;539.87;;
20486;SDS011;10402;49.012;8.370;2023-12-22T01:22:13;597.57;;;565.33;;
20486;SDS011;10402;49.012;8.370;2023-12-22T01:24:39;584.73;;;553.77;;
20486;SDS011;10402;49.012;8.370;2023-12-22T01:27:08;572.90;;;542.77;;
20486;SDS011;10402;49.012;8.370;2023-12-22T01:29:36;586.57;;;555.77;;
20486;SDS011;10402;49.012;8.370;2023-12-22T01:32:02;596.90;;;564.73;;
20486;SDS011;10402;49.012;8.370;2023-12-22T01:34:29;561.30;;;532.47;;
20486;SDS011;10402;49.012;8.370;2023-12-22T01:36:54;572.07;;;542.37;;
20486;SDS011;10402;49.012;8.370;2023-12-22T01:39:20;565.50;;;536.73;;
20486;SDS011;10402;49.012;8.370;2023-12-22T01:41:45;535.27;;;508.73;;
20486;SDS011;10402;49.012;8.370;2023-12-22T01:44:11;512.80;;;488.30;;
20486;SDS011;10402;49.012;8.370;2023-12-22T01:46:36;500.00;;;475.93;;
20486;SDS011;10402;49.012;8.370;2023-12-22T01:49:03;480.20;;;457.83;;
20486;SDS011;10402;49.012;8.370;2023-12-22T01:51:29;480.77;;;458.73;;
20486;SDS011;10402;49.012;8.370;2023-12-22T01:53:57;463.83;;;442.53;;
20486;SDS011;10402;49.012;8.370;2023-12-22T01:56:23;477.97;;;455.63;;
20486;SDS011;10402;49.012;8.370;2023-12-22T01:58:50;457.93;;;436.73;;
20486;SDS011;10402;49.012;8.370;2023-12-22T02:01:18;470.87;;;449.10;;
20486;SDS011;10402;49.012;8.370;2023-12-22T02:03:45;470.87;;;449.43;;
20486;SDS011;10402;49.012;8.370;2023-12-22T02:06:11;460.93;;;439.97;;
20486;SDS011;10402;49.012;8.370;2023-12-22T02:08:37;458.90;;;438.23;;
20486;SDS011;10402;49.012;8.370;2023-12-22T02:11:03;467.40;;;446.10;;
20486;SDS011;10402;49.012;8.370;2023-12-22T02:13:29;458.13;;;437.53;;
20486;SDS011;10402;49.012;8.370;2023-12-22T02:15:58;444.73;;;424.57;;
20486;SDS011;10402;49.012;8.370;2023-12-22T02:18:32;427.70;;;408.77;;
20486;SDS011;10402;49.012;8.370;2023-12-22T02:20:59;450.33;;;430.23;;
20486;SDS011;10402;49.012;8.370;2023-12-22T02:23:25;431.37;;;412.40;;
20486;SDS011;10402;49.012;8.370;2023-12-22T02:25:52;460.90;;;440.67;;
20486;SDS011;10402;49.012;8.370;2023-12-22T02:28:31;449.47;;;430.10;;
20486;SDS011;10402;49.012;8.370;2023-12-22T02:33:43;407.03;;;389.70;;
20486;SDS011;10402;49.012;8.370;2023-12-22T02:36:11;425.87;;;407.57;;
20486;SDS011;10402;49.012;8.370;2023-12-22T02:38:38;400.17;;;383.67;;
20486;SDS011;10402;49.012;8.370;2023-12-22T02:41:04;397.67;;;381.00;;
20486;SDS011;10402;49.012;8.370;2023-12-22T02:43:30;370.47;;;355.07;;
20486;SDS011;10402;49.012;8.370;2023-12-22T02:45:57;356.10;;;341.40;;
20486;SDS011;10402;49.012;8.370;2023-12-22T02:48:22;327.73;;;314.30;;
20486;SDS011;10402;49.012;8.370;2023-12-22T02:50:48;321.17;;;308.47;;
20486;SDS011;10402;49.012;8.370;2023-12-22T02:53:13;324.93;;;311.93;;
20486;SDS011;10402;49.012;8.370;2023-12-22T02:55:39;331.33;;;317.90;;
20486;SDS011;10402;49.012;8.370;2023-12-22T02:58:04;339.50;;;325.60;;
20486;SDS011;10402;49.012;8.370;2023-12-22T03:00:30;352.40;;;337.57;;
20486;SDS011;10402;49.012;8.370;2023-12-22T03:02:55;364.87;;;349.23;;
20486;SDS011;10402;49.012;8.370;2023-12-22T03:05:21;407.53;;;390.00;;
20486;SDS011;10402;49.012;8.370;2023-12-22T03:07:46;424.63;;;405.77;;
20486;SDS011;10402;49.012;8.370;2023-12-22T03:10:12;426.30;;;407.40;;
20486;SDS011;10402;49.012;8.370;2023-12-22T03:12:38;459.20;;;438.50;;
20486;SDS011;10402;49.012;8.370;2023-12-22T03:15:03;435.83;;;416.57;;
20486;SDS011;10402;49.012;8.370;2023-12-22T03:17:30;427.57;;;408.70;;
20486;SDS011;10402;49.012;8.370;2023-12-22T03:19:55;388.37;;;371.87;;
20486;SDS011;10402;49.012;8.370;2023-12-22T03:22:21;391.67;;;374.97;;
20486;SDS011;10402;49.012;8.370;2023-12-22T03:24:46;352.47;;;337.83;;
20486;SDS011;10402;49.012;8.370;2023-12-22T03:27:12;352.23;;;337.43;;
20486;SDS011;10402;49.012;8.370;2023-12-22T03:29:41;325.60;;;312.17;;
20486;SDS011;10402;49.012;8.370;2023-12-22T03:32:07;329.90;;;316.27;;
20486;SDS011;10402;49.012;8.370;2023-12-22T03:34:33;339.93;;;326.17;;
20486;SDS011;10402;49.012;8.370;2023-12-22T03:36:58;309.43;;;297.10;;
20486;SDS011;10402;49.012;8.370;2023-12-22T03:39:24;317.33;;;304.77;;
20486;SDS011;10402;49.012;8.370;2023-12-22T03:41:49;316.17;;;303.53;;
20486;SDS011;10402;49.012;8.370;2023-12-22T03:44:15;319.30;;;306.63;;
20486;SDS011;10402;49.012;8.370;2023-12-22T03:46:40;325.30;;;312.13;;
20486;SDS011;10402;49.012;8.370;2023-12-22T03:49:06;298.13;;;286.30;;
20486;SDS011;10402;49.012;8.370;2023-12-22T03:51:31;345.33;;;330.97;;
20486;SDS011;10402;49.012;8.370;2023-12-22T03:53:57;324.57;;;311.30;;
20486;SDS011;10402;49.012;8.370;2023-12-22T03:56:22;369.33;;;353.80;;
20486;SDS011;10402;49.012;8.370;2023-12-22T03:58:48;405.63;;;388.30;;
20486;SDS011;10402;49.012;8.370;2023-12-22T04:01:14;454.77;;;434.50;;
20486;SDS011;10402;49.012;8.370;2023-12-22T04:03:39;478.00;;;456.23;;
20486;SDS011;10402;49.012;8.370;2023-12-22T04:06:05;503.33;;;480.33;;
20486;SDS011;10402;49.012;8.370;2023-12-22T04:08:31;504.67;;;481.60;;
20486;SDS011;10402;49.012;8.370;2023-12-22T04:10:56;534.43;;;509.33;;
20486;SDS011;10402;49.012;8.370;2023-12-22T04:13:22;503.17;;;479.70;;
20486;SDS011;10402;49.012;8.370;2023-12-22T04:15:47;514.60;;;490.37;;
20486;SDS011;10402;49.012;8.370;2023-12-22T04:18:13;513.90;;;489.63;;
20486;SDS011;10402;49.012;8.370;2023-12-22T04:20:38;545.17;;;518.60;;
20486;SDS011;10402;49.012;8.370;2023-12-22T04:23:04;506.37;;;482.63;;
20486;SDS011;10402;49.012;8.370;2023-12-22T04:25:30;519.73;;;495.37;;
20486;SDS011;10402;49.012;8.370;2023-12-22T04:27:55;539.63;;;513.43;;
20486;SDS011;10402;49.012;8.370;2023-12-22T04:30:21;542.47;;;516.37;;
20486;SDS011;10402;49.012;8.370;2023-12-22T04:32:46;518.50;;;493.60;;
20486;SDS011;10402;49.012;8.370;2023-12-22T04:35:12;526.77;;;501.23;;
20486;SDS011;10402;49.012;8.370;2023-12-22T04:37:37;518.43;;;493.83;;
20486;SDS011;10402;49.012;8.370;2023-12-22T04:40:03;543.63;;;517.33;;
20486;SDS011;10402;49.012;8.370;2023-12-22T04:42:29;561.77;;;533.90;;
20486;SDS011;10402;49.012;8.370;2023-12-22T04:44:54;544.90;;;518.43;;
20486;SDS011;10402;49.012;8.370;2023-12-22T04:47:20;573.60;;;545.10;;
20486;SDS011;10402;49.012;8.370;2023-12-22T04:49:46;544.40;;;517.93;;
20486;SDS011;10402;49.012;8.370;2023-12-22T04:52:11;535.63;;;509.47;;
20486;SDS011;10402;49.012;8.370;2023-12-22T04:54:37;528.87;;;503.47;;
20486;SDS011;10402;49.012;8.370;2023-12-22T04:57:03;545.40;;;519.40;;
20486;SDS011;10402;49.012;8.370;2023-12-22T04:59:29;509.73;;;485.63;;
20486;SDS011;10402;49.012;8.370;2023-12-22T05:01:55;503.23;;;480.07;;
20486;SDS011;10402;49.012;8.370;2023-12-22T05:04:21;511.83;;;488.30;;
20486;SDS011;10402;49.012;8.370;2023-12-22T05:06:47;496.37;;;474.07;;
20486;SDS011;10402;49.012;8.370;2023-12-22T05:09:13;482.13;;;460.63;;
20486;SDS011;10402;49.012;8.370;2023-12-22T05:11:38;482.83;;;461.47;;
20486;SDS011;10402;49.012;8.370;2023-12-22T05:14:04;479.53;;;458.27;;
20486;SDS011;10402;49.012;8.370;2023-12-22T05:16:29;467.10;;;446.10;;
20486;SDS011;10402;49.012;8.370;2023-12-22T05:18:58;466.17;;;445.47;;
20486;SDS011;10402;49.012;8.370;2023-12-22T05:21:24;486.00;;;464.03;;
20486;SDS011;10402;49.012;8.370;2023-12-22T05:23:49;475.73;;;454.63;;
20486;SDS011;10402;49.012;8.370;2023-12-22T05:26:21;481.63;;;460.27;;
20486;SDS011;10402;49.012;8.370;2023-12-22T05:28:47;482.47;;;461.20;;
20486;SDS011;10402;49.012;8.370;2023-12-22T05:31:16;477.20;;;455.97;;
20486;SDS011;10402;49.012;8.370;2023-12-22T05:33:42;467.37;;;446.93;;
20486;SDS011;10402;49.012;8.370;2023-12-22T05:36:08;439.47;;;420.33;;
20486;SDS011;10402;49.012;8.370;2023-12-22T05:38:37;442.77;;;423.67;;
20486;SDS011;10402;49.012;8.370;2023-12-22T05:41:06;428.30;;;410.17;;
20486;SDS011;10402;49.012;8.370;2023-12-22T05:43:32;404.83;;;387.83;;
20486;SDS011;10402;49.012;8.370;2023-12-22T05:45:58;405.10;;;388.00;;
20486;SDS011;10402;49.012;8.370;2023-12-22T05:48:24;367.70;;;352.30;;
20486;SDS011;10402;49.012;8.370;2023-12-22T05:50:50;347.03;;;332.80;;
20486;SDS011;10402;49.012;8.370;2023-12-22T05:53:16;348.50;;;334.27;;
20486;SDS011;10402;49.012;8.370;2023-12-22T05:55:41;340.80;;;326.80;;
20486;SDS011;10402;49.012;8.370;2023-12-22T05:58:07;344.07;;;329.57;;
20486;SDS011;10402;49.012;8.370;2023-12-22T06:00:32;329.27;;;316.07;;
20486;SDS011;10402;49.012;8.370;2023-12-22T06:02:59;320.10;;;307.30;;
20486;SDS011;10402;49.012;8.370;2023-12-22T06:05:26;328.03;;;314.67;;
20486;SDS011;10402;49.012;8.370;2023-12-22T06:07:51;348.50;;;334.53;;
20486;SDS011;10402;49.012;8.370;2023-12-22T06:10:17;338.23;;;324.57;;
20486;SDS011;10402;49.012;8.370;2023-12-22T06:12:42;347.50;;;333.47;;
20486;SDS011;10402;49.012;8.370;2023-12-22T06:15:08;335.27;;;321.80;;
20486;SDS011;10402;49.012;8.370;2023-12-22T06:17:34;340.37;;;326.73;;
20486;SDS011;10402;49.012;8.370;2023-12-22T06:19:59;343.40;;;329.40;;
20486;SDS011;10402;49.012;8.370;2023-12-22T06:22:25;366.60;;;351.60;;
20486;SDS011;10402;49.012;8.370;2023-12-22T06:24:50;364.27;;;348.97;;
20486;SDS011;10402;49.012;8.370;2023-12-22T06:27:16;374.50;;;358.80;;
20486;SDS011;10402;49.012;8.370;2023-12-22T06:29:42;382.93;;;366.87;;
20486;SDS011;10402;49.012;8.370;2023-12-22T06:32:07;384.50;;;367.93;;
20486;SDS011;10402;49.012;8.370;2023-12-22T06:34:33;392.43;;;375.13;;
20486;SDS011;10402;49.012;8.370;2023-12-22T06:36:58;401.93;;;384.23;;
20486;SDS011;10402;49.012;8.370;2023-12-22T06:39:24;385.20;;;368.43;;
20486;SDS011;10402;49.012;8.370;2023-12-22T06:41:49;362.63;;;347.10;;
20486;SDS011;10402;49.012;8.370;2023-12-22T06:44:16;378.17;;;361.53;;
20486;SDS011;10402;49.012;8.370;2023-12-22T06:46:41;346.50;;;331.60;;
20486;SDS011;10402;49.012;8.370;2023-12-22T06:49:07;324.60;;;310.80;;
20486;SDS011;10402;49.012;8.370;2023-12-22T06:51:32;320.47;;;306.87;;
20486;SDS011;10402;49.012;8.370;2023-12-22T06:54:01;296.23;;;283.90;;
20486;SDS011;10402;49.012;8.370;2023-12-22T06:56:28;296.53;;;283.90;;
20486;SDS011;10402;49.012;8.370;2023-12-22T06:58:55;320.70;;;306.73;;
20486;SDS011;10402;49.012;8.370;2023-12-22T07:01:26;347.33;;;332.17;;
20486;SDS011;10402;49.012;8.370;2023-12-22T07:03:53;392.30;;;374.83;;
20486;SDS011;10402;49.012;8.370;2023-12-22T07:06:19;420.83;;;401.97;;
20486;SDS011;10402;49.012;8.370;2023-12-22T07:08:56;446.17;;;425.63;;
20486;SDS011;10402;49.012;8.370;2023-12-22T07:11:22;467.27;;;445.73;;
20486;SDS011;10402;49.012;8.370;2023-12-22T07:13:47;488.00;;;465.40;;
20486;SDS011;10402;49.012;8.370;2023-12-22T07:16:13;526.73;;;501.77;;
20486;SDS011;10402;49.012;8.370;2023-12-22T07:18:40;524.87;;;500.33;;
20486;SDS011;10402;49.012;8.370;2023-12-22T07:21:06;520.73;;;496.40;;
20486;SDS011;10402;49.012;8.370;2023-12-22T07:23:32;523.10;;;498.80;;
20486;SDS011;10402;49.012;8.370;2023-12-22T07:25:57;527.10;;;502.20;;
20486;SDS011;10402;49.012;8.370;2023-12-22T07:28:23;528.40;;;503.43;;
20486;SDS011;10402;49.012;8.370;2023-12-22T07:30:49;507.30;;;483.80;;
20486;SDS011;10402;49.012;8.370;2023-12-22T07:33:14;548.07;;;521.67;;
20486;SDS011;10402;49.012;8.370;2023-12-22T07:35:40;560.40;;;533.27;;
20486;SDS011;10402;49.012;8.370;2023-12-22T07:38:05;562.63;;;535.00;;
20486;SDS011;10402;49.012;8.370;2023-12-22T07:40:31;547.20;;;520.57;;
20486;SDS011;10402;49.012;8.370;2023-12-22T07:42:56;562.57;;;534.00;;
20486;SDS011;10402;49.012;8.370;2023-12-22T07:45:22;569.60;;;540.10;;
20486;SDS011;10402;49.012;8.370;2023-12-22T07:47:48;560.83;;;531.30;;
20486;SDS011;10402;49.012;8.370;2023-12-22T07:50:13;519.63;;;492.67;;
20486;SDS011;10402;49.012;8.370;2023-12-22T07:52:39;505.27;;;479.47;;
20486;SDS011;10402;49.012;8.370;2023-12-22T07:55:08;484.97;;;460.13;;
20486;SDS011;10402;49.012;8.370;2023-12-22T07:57:37;443.80;;;422.37;;
20486;SDS011;10402;49.012;8.370;2023-12-22T08:00:04;404.30;;;385.00;;
20486;SDS011;10402;49.012;8.370;2023-12-22T08:02:30;389.70;;;371.37;;
20486;SDS011;10402;49.012;8.370;2023-12-22T08:04:55;370.83;;;353.63;;
20486;SDS011;10402;49.012;8.370;2023-12-22T08:07:21;375.83;;;358.60;;
20486;SDS011;10402;49.012;8.370;2023-12-22T08:09:46;361.47;;;345.13;;
20486;SDS011;10402;49.012;8.370;2023-12-22T08:12:12;361.97;;;345.97;;
20486;SDS011;10402;49.012;8.370;2023-12-22T08:14:37;355.03;;;339.53;;
20486;SDS011;10402;49.012;8.370;2023-12-22T08:17:03;337.97;;;323.17;;
20486;SDS011;10402;49.012;8.370;2023-12-22T08:19:29;347.60;;;332.33;;
20486;SDS011;10402;49.012;8.370;2023-12-22T08:21:54;366.03;;;350.20;;
20486;SDS011;10402;49.012;8.370;2023-12-22T08:24:20;344.27;;;329.57;;
20486;SDS011;10402;49.012;8.370;2023-12-22T08:26:46;340.47;;;325.83;;
20486;SDS011;10402;49.012;8.370;2023-12-22T08:29:11;347.57;;;332.43;;
20486;SDS011;10402;49.012;8.370;2023-12-22T08:31:37;351.27;;;335.83;;
20486;SDS011;10402;49.012;8.370;2023-12-22T08:34:02;346.63;;;331.67;;
20486;SDS011;10402;49.012;8.370;2023-12-22T08:36:28;358.03;;;342.40;;
20486;SDS011;10402;49.012;8.370;2023-12-22T08:38:53;362.27;;;346.50;;
20486;SDS011;10402;49.012;8.370;2023-12-22T08:41:19;366.17;;;350.17;;
20486;SDS011;10402;49.012;8.370;2023-12-22T08:43:45;394.50;;;376.63;;
20486;SDS011;10402;49.012;8.370;2023-12-22T08:46:10;406.60;;;388.00;;
20486;SDS011;10402;49.012;8.370;2023-12-22T08:48:37;392.60;;;374.57;;
20486;SDS011;10402;49.012;8.370;2023-12-22T08:51:02;424.37;;;403.87;;
20486;SDS011;10402;49.012;8.370;2023-12-22T08:53:29;442.00;;;421.23;;
20486;SDS011;10402;49.012;8.370;2023-12-22T08:55:56;458.27;;;436.07;;
20486;SDS011;10402;49.012;8.370;2023-12-22T08:58:21;460.13;;;438.23;;
20486;SDS011;10402;49.012;8.370;2023-12-22T09:00:47;495.73;;;471.97;;
20486;SDS011;10402;49.012;8.370;2023-12-22T09:03:13;495.70;;;472.37;;
20486;SDS011;10402;49.012;8.370;2023-12-22T09:05:38;524.87;;;499.83;;
20486;SDS011;10402;49.012;8.370;2023-12-22T09:08:04;543.00;;;517.10;;
20486;SDS011;10402;49.012;8.370;2023-12-22T09:10:30;531.60;;;506.50;;
20486;SDS011;10402;49.012;8.370;2023-12-22T09:12:57;549.73;;;523.77;;
20486;SDS011;10402;49.012;8.370;2023-12-22T09:15:23;528.67;;;504.00;;
20486;SDS011;10402;49.012;8.370;2023-12-22T09:17:48;539.37;;;514.60;;
20486;SDS011;10402;49.012;8.370;2023-12-22T09:20:14;505.70;;;483.00;;
20486;SDS011;10402;49.012;8.370;2023-12-22T09:22:40;470.10;;;449.17;;
20486;SDS011;10402;49.012;8.370;2023-12-22T09:25:06;466.30;;;445.87;;
20486;SDS011;10402;49.012;8.370;2023-12-22T09:27:33;448.70;;;429.00;;
20486;SDS011;10402;49.012;8.370;2023-12-22T09:29:59;435.53;;;417.23;;
20486;SDS011;10402;49.012;8.370;2023-12-22T09:32:24;441.97;;;423.67;;
20486;SDS011;10402;49.012;8.370;2023-12-22T09:34:51;424.03;;;406.53;;
20486;SDS011;10402;49.012;8.370;2023-12-22T09:37:17;435.10;;;417.13;;
20486;SDS011;10402;49.012;8.370;2023-12-22T09:39:42;427.97;;;410.70;;
20486;SDS011;10402;49.012;8.370;2023-12-22T09:42:08;435.17;;;416.93;;
20486;SDS011;10402;49.012;8.370;2023-12-22T09:44:34;414.53;;;397.50;;
20486;SDS011;10402;49.012;8.370;2023-12-22T09:47:03;398.73;;;382.10;;
20486;SDS011;10402;49.012;8.370;2023-12-22T09:49:31;410.33;;;393.07;;
20486;SDS011;10402;49.012;8.370;2023-12-22T09:51:58;415.37;;;397.93;;
20486;SDS011;10402;49.012;8.370;2023-12-22T09:54:26;427.37;;;409.10;;
20486;SDS011;10402;49.012;8.370;2023-12-22T09:56:51;433.80;;;415.13;;
20486;SDS011;10402;49.012;8.370;2023-12-22T09:59:17;410.83;;;393.37;;
20486;SDS011;10402;49.012;8.370;2023-12-22T10:01:45;425.73;;;407.70;;
20486;SDS011;10402;49.012;8.370;2023-12-22T10:04:13;418.80;;;401.00;;
20486;SDS011;10402;49.012;8.370;2023-12-22T10:06:39;407.03;;;389.93;;
20486;SDS011;10402;49.012;8.370;2023-12-22T10:09:06;429.03;;;410.50;;
20486;SDS011;10402;49.012;8.370;2023-12-22T10:11:34;431.63;;;413.20;;
20486;SDS011;10402;49.012;8.370;2023-12-22T10:14:01;435.80;;;417.13;;
20486;SDS011;10402;49.012;8.370;2023-12-22T10:16:27;433.67;;;415.30;;
20486;SDS011;10402;49.012;8.370;2023-12-22T10:18:54;430.67;;;412.53;;
20486;SDS011;10402;49.012;8.370;2023-12-22T10:21:20;409.87;;;392.43;;
20486;SDS011;10402;49.012;8.370;2023-12-22T10:23:45;421.47;;;403.43;;
20486;SDS011;10402;49.012;8.370;2023-12-22T10:26:11;424.10;;;406.03;;
20486;SDS011;10402;49.012;8.370;2023-12-22T10:28:37;416.40;;;399.23;;
20486;SDS011;10402;49.012;8.370;2023-12-22T10:31:02;435.93;;;417.60;;
20486;SDS011;10402;49.012;8.370;2023-12-22T10:33:31;459.23;;;439.53;;
20486;SDS011;10402;49.012;8.370;2023-12-22T10:35:58;476.03;;;455.33;;
20486;SDS011;10402;49.012;8.370;2023-12-22T10:38:25;529.47;;;504.87;;
20486;SDS011;10402;49.012;8.370;2023-12-22T10:40:51;557.47;;;531.30;;
20486;SDS011;10402;49.012;8.370;2023-12-22T10:43:17;565.80;;;538.90;;
20486;SDS011;10402;49.012;8.370;2023-12-22T10:45:43;546.17;;;519.53;;
20486;SDS011;10402;49.012;8.370;2023-12-22T10:48:08;518.70;;;492.90;;
20486;SDS011;10402;49.012;8.370;2023-12-22T10:50:35;493.40;;;468.90;;
20486;SDS011;10402;49.012;8.370;2023-12-22T10:53:00;436.07;;;414.73;;
20486;SDS011;10402;49.012;8.370;2023-12-22T10:55:26;406.40;;;387.57;;
20486;SDS011;10402;49.012;8.370;2023-12-22T10:57:52;357.23;;;341.60;;
20486;SDS011;10402;49.012;8.370;2023-12-22T11:00:19;320.07;;;306.23;;
20486;SDS011;10402;49.012;8.370;2023-12-22T11:02:49;330.63;;;316.33;;
20486;SDS011;10402;49.012;8.370;2023-12-22T11:05:17;316.63;;;303.13;;
20486;SDS011;10402;49.012;8.370;2023-12-22T11:07:46;318.07;;;304.60;;
20486;SDS011;10402;49.012;8.370;2023-12-22T11:10:14;332.10;;;318.13;;
20486;SDS011;10402;49.012;8.370;2023-12-22T11:12:43;321.70;;;308.47;;
20486;SDS011;10402;49.012;8.370;2023-12-22T11:15:11;341.33;;;327.23;;
20486;SDS011;10402;49.012;8.370;2023-12-22T11:17:39;375.20;;;359.40;;
20486;SDS011;10402;49.012;8.370;2023-12-22T11:20:08;410.50;;;393.07;;
20486;SDS011;10402;49.012;8.370;2023-12-22T11:22:35;428.47;;;409.93;;
20486;SDS011;10402;49.012;8.370;2023-12-22T11:25:02;453.40;;;433.43;;
20486;SDS011;10402;49.012;8.370;2023-12-22T11:27:29;447.40;;;427.63;;
20486;SDS011;10402;49.012;8.370;2023-12-22T11:29:58;441.63;;;421.93;;
20486;SDS011;10402;49.012;8.370;2023-12-22T11:32:26;471.03;;;450.20;;
20486;SDS011;10402;49.012;8.370;2023-12-22T11:34:54;459.30;;;439.00;;
20486;SDS011;10402;49.012;8.370;2023-12-22T11:37:21;451.90;;;431.73;;
20486;SDS011;10402;49.012;8.370;2023-12-22T11:39:47;451.77;;;431.83;;
20486;SDS011;10402;49.012;8.370;2023-12-22T11:42:19;437.33;;;418.20;;
20486;SDS011;10402;49.012;8.370;2023-12-22T11:44:49;454.27;;;434.53;;
20486;SDS011;10402;49.012;8.370;2023-12-22T11:47:15;439.10;;;420.33;;
20486;SDS011;10402;49.012;8.370;2023-12-22T11:49:40;434.80;;;416.47;;
20486;SDS011;10402;49.012;8.370;2023-12-22T11:52:13;431.93;;;413.83;;
20486;SDS011;10402;49.012;8.370;2023-12-22T11:59:56;419.20;;;401.60;;
20486;SDS011;10402;49.012;8.370;2023-12-22T12:02:22;437.27;;;418.93;;
20486;SDS011;10402;49.012;8.370;2023-12-22T12:04:48;422.70;;;405.30;;
20486;SDS011;10402;49.012;8.370;2023-12-22T12:10:04;392.90;;;376.80;;
20486;SDS011;10402;49.012;8.370;2023-12-22T12:12:31;365.20;;;350.37;;
20486;SDS011;10402;49.012;8.370;2023-12-22T12:14:59;333.03;;;319.90;;
20486;SDS011;10402;49.012;8.370;2023-12-22T12:17:32;328.10;;;315.30;;
20486;SDS011;10402;49.012;8.370;2023-12-22T12:19:58;316.07;;;303.83;;
20486;SDS011;10402;49.012;8.370;2023-12-22T12:22:24;307.53;;;295.53;;
20486;SDS011;10402;49.012;8.370;2023-12-22T12:24:51;311.17;;;298.87;;
20486;SDS011;10402;49.012;8.370;2023-12-22T12:27:17;307.00;;;294.93;;
20486;SDS011;10402;49.012;8.370;2023-12-22T12:29:44;299.57;;;287.80;;
20486;SDS011;10402;49.012;8.370;2023-12-22T12:32:10;288.17;;;276.97;;
20486;SDS011;10402;49.012;8.370;2023-12-22T12:34:40;277.30;;;266.30;;
20486;SDS011;10402;49.012;8.370;2023-12-22T12:37:07;289.00;;;277.73;;
20486;SDS011;10402;49.012;8.370;2023-12-22T12:39:33;309.40;;;297.30;;
20486;SDS011;10402;49.012;8.370;2023-12-22T12:42:00;311.27;;;299.10;;
20486;SDS011;10402;49.012;8.370;2023-12-22T12:44:29;300.50;;;288.83;;
20486;SDS011;10402;49.012;8.370;2023-12-22T12:46:57;315.67;;;303.43;;
20486;SDS011;10402;49.012;8.370;2023-12-22T12:49:23;322.40;;;309.80;;
20486;SDS011;10402;49.012;8.370;2023-12-22T12:51:54;339.73;;;326.33;;
20486;SDS011;10402;49.012;8.370;2023-12-22T12:54:20;338.90;;;325.40;;
20486;SDS011;10402;49.012;8.370;2023-12-22T12:56:46;339.07;;;325.57;;
20486;SDS011;10402;49.012;8.370;2023-12-22T12:59:12;357.77;;;343.33;;
20486;SDS011;10402;49.012;8.370;2023-12-22T13:04:09;372.80;;;357.50;;
20486;SDS011;10402;49.012;8.370;2023-12-22T13:06:35;364.30;;;349.20;;
20486;SDS011;10402;49.012;8.370;2023-12-22T13:09:07;353.37;;;338.90;;
20486;SDS011;10402;49.012;8.370;2023-12-22T13:11:33;360.23;;;345.17;;
20486;SDS011;10402;49.012;8.370;2023-12-22T13:14:01;355.63;;;340.80;;
20486;SDS011;10402;49.012;8.370;2023-12-22T13:16:27;374.60;;;358.73;;
20486;SDS011;10402;49.012;8.370;2023-12-22T13:18:56;370.77;;;354.83;;
20486;SDS011;10402;49.012;8.370;2023-12-22T13:21:23;353.87;;;339.03;;
20486;SDS011;10402;49.012;8.370;2023-12-22T13:26:33;362.03;;;346.83;;
20486;SDS011;10402;49.012;8.370;2023-12-22T13:28:58;376.97;;;360.57;;
20486;SDS011;10402;49.012;8.370;2023-12-22T13:31:25;377.27;;;361.03;;
20486;SDS011;10402;49.012;8.370;2023-12-22T13:33:51;377.13;;;360.87;;
20486;SDS011;10402;49.012;8.370;2023-12-22T13:36:17;389.13;;;372.00;;
20486;SDS011;10402;49.012;8.370;2023-12-22T13:38:46;388.00;;;371.07;;
20486;SDS011;10402;49.012;8.370;2023-12-22T13:41:12;374.43;;;358.17;;
20486;SDS011;10402;49.012;8.370;2023-12-22T13:43:38;391.40;;;374.00;;
20486;SDS011;10402;49.012;8.370;2023-12-22T13:46:05;364.40;;;348.37;;
20486;SDS011;10402;49.012;8.370;2023-12-22T13:48:32;377.37;;;360.57;;
20486;SDS011;10402;49.012;8.370;2023-12-22T13:50:59;370.73;;;354.10;;
20486;SDS011;10402;49.012;8.370;2023-12-22T13:53:25;361.23;;;344.87;;
20486;SDS011;10402;49.012;8.370;2023-12-22T13:55:55;356.40;;;339.87;;
20486;SDS011;10402;49.012;8.370;2023-12-22T13:58:25;356.77;;;340.33;;
20486;SDS011;10402;49.012;8.370;2023-12-22T14:00:51;366.90;;;349.60;;
20486;SDS011;10402;49.012;8.370;2023-12-22T14:03:17;377.03;;;359.43;;
20486;SDS011;10402;49.012;8.370;2023-12-22T14:05:49;368.73;;;351.53;;
20486;SDS011;10402;49.012;8.370;2023-12-22T14:08:17;379.83;;;361.50;;